sensor_id;sensor_type;location;lat;lon;timestamp;pressure;altitude;pressure_sealevel;temperature;humidity
28456;BME280;15682;56.742;38.866;2023-01-08T00:01:12;100740.0;;;-20.7;89.7
28456;BME280;15682;56.742;38.866;2023-01-08T00:03:12;100740.0;;;-20.7;89.7
28456;BME280;15682;56.742;38.866;2023-01-08T00:05:11;100740.0;;;-20.9;89.7
28456;BME280;15682;56.742;38.866;2023-01-08T00:07:11;100740.0;;;-20.9;89.7
28456;BME280;15682;56.742;38.866;2023-01-08T00:09:11;100740.0;;;-20.9;90.2
28456;BME280;15682;56.742;38.866;2023-01-08T00:11:11;100740.0;;;-21.0;89.5
28456;BME280;15682;56.742;38.866;2023-01-08T00:13:09;100740.0;;;-21.1;89.5
28456;BME280;15682;56.742;38.866;2023-01-08T00:15:09;100740.0;;;-21.1;89.5
28456;BME280;15682;56.742;38.866;2023-01-08T00:17:08;100740.0;;;-21.1;89.5
28456;BME280;15682;56.742;38.866;2023-01-08T00:19:10;100740.0;;;-21.1;90.0
28456;BME280;15682;56.742;38.866;2023-01-08T00:21:08;100740.0;;;-21.1;89.7
28456;BME280;15682;56.742;38.866;2023-01-08T00:23:09;100740.0;;;-21.1;89.7
28456;BME280;15682;56.742;38.866;2023-01-08T00:25:07;100740.0;;;-21.2;89.7
28456;BME280;15682;56.742;38.866;2023-01-08T00:27:05;100740.0;;;-21.2;89.5
28456;BME280;15682;56.742;38.866;2023-01-08T00:29:05;100740.0;;;-21.2;89.5
28456;BME280;15682;56.742;38.866;2023-01-08T00:31:06;100740.0;;;-21.2;89.5
28456;BME280;15682;56.742;38.866;2023-01-08T00:33:04;100750.0;;;-21.2;89.5
28456;BME280;15682;56.742;38.866;2023-01-08T00:35:04;100740.0;;;-21.2;90.0
28456;BME280;15682;56.742;38.866;2023-01-08T00:37:03;100740.0;;;-21.3;89.4
28456;BME280;15682;56.742;38.866;2023-01-08T00:39:02;100750.0;;;-21.3;89.4
28456;BME280;15682;56.742;38.866;2023-01-08T00:41:02;100750.0;;;-21.4;89.7
28456;BME280;15682;56.742;38.866;2023-01-08T00:43:02;100750.0;;;-21.4;89.7
28456;BME280;15682;56.742;38.866;2023-01-08T00:45:00;100750.0;;;-21.4;89.7
28456;BME280;15682;56.742;38.866;2023-01-08T00:47:00;100750.0;;;-21.4;89.7
28456;BME280;15682;56.742;38.866;2023-01-08T00:48:59;100750.0;;;-21.4;89.7
28456;BME280;15682;56.742;38.866;2023-01-08T00:51:00;100740.0;;;-21.3;89.5
28456;BME280;15682;56.742;38.866;2023-01-08T00:52:58;100740.0;;;-21.5;89.5
28456;BME280;15682;56.742;38.866;2023-01-08T00:54:58;100740.0;;;-21.5;89.5
28456;BME280;15682;56.742;38.866;2023-01-08T00:56:57;100740.0;;;-21.5;89.5
28456;BME280;15682;56.742;38.866;2023-01-08T00:58:57;100740.0;;;-21.5;89.5
28456;BME280;15682;56.742;38.866;2023-01-08T01:00:56;100740.0;;;-21.6;88.9
28456;BME280;15682;56.742;38.866;2023-01-08T01:02:55;100740.0;;;-21.6;89.6
28456;BME280;15682;56.742;38.866;2023-01-08T01:04:55;100740.0;;;-21.6;89.6
28456;BME280;15682;56.742;38.866;2023-01-08T01:06:54;100740.0;;;-21.6;89.6
28456;BME280;15682;56.742;38.866;2023-01-08T01:08:54;100740.0;;;-21.6;89.6
28456;BME280;15682;56.742;38.866;2023-01-08T01:10:53;100740.0;;;-21.7;89.5
28456;BME280;15682;56.742;38.866;2023-01-08T01:12:53;100740.0;;;-21.7;89.5
28456;BME280;15682;56.742;38.866;2023-01-08T01:14:52;100740.0;;;-21.7;89.5
28456;BME280;15682;56.742;38.866;2023-01-08T01:16:52;100740.0;;;-21.7;89.0
28456;BME280;15682;56.742;38.866;2023-01-08T01:18:51;100740.0;;;-21.7;89.0
28456;BME280;15682;56.742;38.866;2023-01-08T01:20:51;100740.0;;;-21.7;89.7
28456;BME280;15682;56.742;38.866;2023-01-08T01:22:50;100740.0;;;-21.7;89.7
28456;BME280;15682;56.742;38.866;2023-01-08T01:24:49;100740.0;;;-21.7;89.7
28456;BME280;15682;56.742;38.866;2023-01-08T01:26:49;100740.0;;;-21.7;89.7
28456;BME280;15682;56.742;38.866;2023-01-08T01:28:50;100740.0;;;-21.7;89.7
28456;BME280;15682;56.742;38.866;2023-01-08T01:30:53;100740.0;;;-21.8;89.7
28456;BME280;15682;56.742;38.866;2023-01-08T01:32:47;100740.0;;;-21.8;89.7
28456;BME280;15682;56.742;38.866;2023-01-08T01:34:47;100740.0;;;-21.8;89.7
28456;BME280;15682;56.742;38.866;2023-01-08T01:36:46;100740.0;;;-21.8;89.7
28456;BME280;15682;56.742;38.866;2023-01-08T01:38:47;100740.0;;;-21.8;89.7
28456;BME280;15682;56.742;38.866;2023-01-08T01:40:45;100740.0;;;-21.8;89.6
28456;BME280;15682;56.742;38.866;2023-01-08T01:42:44;100740.0;;;-21.8;89.6
28456;BME280;15682;56.742;38.866;2023-01-08T01:44:44;100740.0;;;-21.8;89.6
28456;BME280;15682;56.742;38.866;2023-01-08T01:46:43;100740.0;;;-21.8;89.6
28456;BME280;15682;56.742;38.866;2023-01-08T01:48:43;100750.0;;;-21.8;89.6
28456;BME280;15682;56.742;38.866;2023-01-08T01:50:45;100750.0;;;-21.8;89.7
28456;BME280;15682;56.742;38.866;2023-01-08T01:52:44;100750.0;;;-21.8;89.7
28456;BME280;15682;56.742;38.866;2023-01-08T01:54:41;100750.0;;;-21.8;89.7
28456;BME280;15682;56.742;38.866;2023-01-08T01:56:41;100750.0;;;-21.8;89.7
28456;BME280;15682;56.742;38.866;2023-01-08T01:58:40;100750.0;;;-21.8;88.8
28456;BME280;15682;56.742;38.866;2023-01-08T02:00:40;100750.0;;;-21.6;88.8
28456;BME280;15682;56.742;38.866;2023-01-08T02:02:39;100750.0;;;-21.8;88.9
28456;BME280;15682;56.742;38.866;2023-01-08T02:04:38;100750.0;;;-21.8;89.6
28456;BME280;15682;56.742;38.866;2023-01-08T02:06:42;100750.0;;;-21.8;89.6
28456;BME280;15682;56.742;38.866;2023-01-08T02:08:44;100750.0;;;-21.8;90.3
28456;BME280;15682;56.742;38.866;2023-01-08T02:10:41;100750.0;;;-21.4;90.3
28456;BME280;15682;56.742;38.866;2023-01-08T02:12:39;100750.0;;;-21.4;90.3
28456;BME280;15682;56.742;38.866;2023-01-08T02:14:39;100750.0;;;-21.4;90.3
28456;BME280;15682;56.742;38.866;2023-01-08T02:16:40;100750.0;;;-21.3;90.3
28456;BME280;15682;56.742;38.866;2023-01-08T02:18:37;100750.0;;;-21.3;90.3
28456;BME280;15682;56.742;38.866;2023-01-08T02:20:36;100750.0;;;-21.2;90.3
28456;BME280;15682;56.742;38.866;2023-01-08T02:22:43;100750.0;;;-21.2;89.8
28456;BME280;15682;56.742;38.866;2023-01-08T02:24:44;100750.0;;;-21.2;90.6
28456;BME280;15682;56.742;38.866;2023-01-08T02:26:33;100750.0;;;-21.2;90.6
28456;BME280;15682;56.742;38.866;2023-01-08T02:28:35;100760.0;;;-21.2;90.0
28456;BME280;15682;56.742;38.866;2023-01-08T02:30:31;100760.0;;;-21.3;90.0
28456;BME280;15682;56.742;38.866;2023-01-08T02:32:34;100760.0;;;-21.1;89.7
28456;BME280;15682;56.742;38.866;2023-01-08T02:34:30;100760.0;;;-21.1;89.7
28456;BME280;15682;56.742;38.866;2023-01-08T02:36:33;100760.0;;;-21.1;89.7
28456;BME280;15682;56.742;38.866;2023-01-08T02:38:29;100760.0;;;-21.1;89.7
28456;BME280;15682;56.742;38.866;2023-01-08T02:40:34;100760.0;;;-21.0;89.7
28456;BME280;15682;56.742;38.866;2023-01-08T02:42:34;100760.0;;;-21.0;90.3
28456;BME280;15682;56.742;38.866;2023-01-08T02:44:35;100760.0;;;-20.8;90.3
28456;BME280;15682;56.742;38.866;2023-01-08T02:46:31;100760.0;;;-20.8;90.3
28456;BME280;15682;56.742;38.866;2023-01-08T02:48:32;100760.0;;;-20.8;90.3
28456;BME280;15682;56.742;38.866;2023-01-08T02:50:30;100760.0;;;-20.8;89.4
28456;BME280;15682;56.742;38.866;2023-01-08T02:52:27;100760.0;;;-20.6;89.4
28456;BME280;15682;56.742;38.866;2023-01-08T02:54:28;100760.0;;;-20.6;88.8
28456;BME280;15682;56.742;38.866;2023-01-08T02:56:27;100770.0;;;-20.6;89.3
28456;BME280;15682;56.742;38.866;2023-01-08T02:58:25;100770.0;;;-20.6;89.3
28456;BME280;15682;56.742;38.866;2023-01-08T03:00:23;100770.0;;;-20.5;89.9
28456;BME280;15682;56.742;38.866;2023-01-08T03:02:23;100770.0;;;-20.5;90.1
28456;BME280;15682;56.742;38.866;2023-01-08T03:04:23;100770.0;;;-20.3;90.1
28456;BME280;15682;56.742;38.866;2023-01-08T03:06:22;100770.0;;;-20.2;90.1
28456;BME280;15682;56.742;38.866;2023-01-08T03:08:21;100770.0;;;-20.2;90.1
28456;BME280;15682;56.742;38.866;2023-01-08T03:10:23;100770.0;;;-20.0;90.6
28456;BME280;15682;56.742;38.866;2023-01-08T03:12:23;100770.0;;;-19.8;90.6
28456;BME280;15682;56.742;38.866;2023-01-08T03:14:22;100770.0;;;-19.8;90.6
28456;BME280;15682;56.742;38.866;2023-01-08T03:16:23;100770.0;;;-19.8;90.6
28456;BME280;15682;56.742;38.866;2023-01-08T03:18:21;100770.0;;;-19.8;90.6
28456;BME280;15682;56.742;38.866;2023-01-08T03:20:20;100770.0;;;-19.7;90.6
28456;BME280;15682;56.742;38.866;2023-01-08T03:22:18;100770.0;;;-19.7;90.4
28456;BME280;15682;56.742;38.866;2023-01-08T03:24:20;100780.0;;;-19.5;90.4
28456;BME280;15682;56.742;38.866;2023-01-08T03:26:18;100770.0;;;-19.5;90.4
28456;BME280;15682;56.742;38.866;2023-01-08T03:28:19;100770.0;;;-19.5;90.4
28456;BME280;15682;56.742;38.866;2023-01-08T03:30:17;100770.0;;;-19.4;90.4
28456;BME280;15682;56.742;38.866;2023-01-08T03:32:15;100780.0;;;-19.4;90.9
28456;BME280;15682;56.742;38.866;2023-01-08T03:34:15;100780.0;;;-19.4;90.9
28456;BME280;15682;56.742;38.866;2023-01-08T03:36:15;100780.0;;;-19.1;90.9
28456;BME280;15682;56.742;38.866;2023-01-08T03:38:16;100780.0;;;-19.1;90.9
28456;BME280;15682;56.742;38.866;2023-01-08T03:40:17;100790.0;;;-19.2;90.9
28456;BME280;15682;56.742;38.866;2023-01-08T03:42:14;100790.0;;;-19.2;90.5
28456;BME280;15682;56.742;38.866;2023-01-08T03:44:11;100790.0;;;-19.2;90.5
28456;BME280;15682;56.742;38.866;2023-01-08T03:46:13;100790.0;;;-19.2;90.5
28456;BME280;15682;56.742;38.866;2023-01-08T03:48:10;100790.0;;;-19.0;90.5
28456;BME280;15682;56.742;38.866;2023-01-08T03:50:15;100790.0;;;-19.0;90.5
28456;BME280;15682;56.742;38.866;2023-01-08T03:52:20;100790.0;;;-18.9;90.5
28456;BME280;15682;56.742;38.866;2023-01-08T03:54:12;100790.0;;;-18.9;90.5
28456;BME280;15682;56.742;38.866;2023-01-08T03:56:08;100790.0;;;-18.8;90.5
28456;BME280;15682;56.742;38.866;2023-01-08T03:58:08;100790.0;;;-18.8;90.0
28456;BME280;15682;56.742;38.866;2023-01-08T04:00:08;100790.0;;;-18.9;89.5
28456;BME280;15682;56.742;38.866;2023-01-08T04:02:07;100790.0;;;-18.9;90.0
28456;BME280;15682;56.742;38.866;2023-01-08T04:04:07;100790.0;;;-18.9;90.0
28456;BME280;15682;56.742;38.866;2023-01-08T04:06:06;100790.0;;;-18.9;90.0
28456;BME280;15682;56.742;38.866;2023-01-08T04:08:05;100790.0;;;-18.9;90.7
28456;BME280;15682;56.742;38.866;2023-01-08T04:10:06;100790.0;;;-18.8;90.7
28456;BME280;15682;56.742;38.866;2023-01-08T04:12:05;100790.0;;;-18.7;90.4
28456;BME280;15682;56.742;38.866;2023-01-08T04:14:04;100790.0;;;-18.5;90.7
28456;BME280;15682;56.742;38.866;2023-01-08T04:16:04;100790.0;;;-18.5;90.1
28456;BME280;15682;56.742;38.866;2023-01-08T04:18:03;100790.0;;;-18.7;90.1
28456;BME280;15682;56.742;38.866;2023-01-08T04:20:03;100790.0;;;-18.8;89.6
28456;BME280;15682;56.742;38.866;2023-01-08T04:22:02;100790.0;;;-18.8;90.2
28456;BME280;15682;56.742;38.866;2023-01-08T04:24:01;100790.0;;;-18.8;90.8
28456;BME280;15682;56.742;38.866;2023-01-08T04:26:03;100790.0;;;-18.9;90.8
28456;BME280;15682;56.742;38.866;2023-01-08T04:28:00;100790.0;;;-18.9;90.8
28456;BME280;15682;56.742;38.866;2023-01-08T04:30:00;100790.0;;;-19.0;90.8
28456;BME280;15682;56.742;38.866;2023-01-08T04:32:00;100790.0;;;-19.0;90.8
28456;BME280;15682;56.742;38.866;2023-01-08T04:33:59;100790.0;;;-19.0;91.3
28456;BME280;15682;56.742;38.866;2023-01-08T04:35:59;100790.0;;;-19.0;91.3
28456;BME280;15682;56.742;38.866;2023-01-08T04:37:58;100790.0;;;-19.0;91.3
28456;BME280;15682;56.742;38.866;2023-01-08T04:39:58;100790.0;;;-19.0;90.7
28456;BME280;15682;56.742;38.866;2023-01-08T04:41:57;100790.0;;;-19.0;91.0
28456;BME280;15682;56.742;38.866;2023-01-08T04:43:57;100790.0;;;-18.9;91.0
28456;BME280;15682;56.742;38.866;2023-01-08T04:45:57;100790.0;;;-18.9;91.0
28456;BME280;15682;56.742;38.866;2023-01-08T04:47:56;100790.0;;;-18.9;91.0
28456;BME280;15682;56.742;38.866;2023-01-08T04:49:55;100790.0;;;-19.1;91.0
28456;BME280;15682;56.742;38.866;2023-01-08T04:51:55;100790.0;;;-19.1;90.7
28456;BME280;15682;56.742;38.866;2023-01-08T04:53:54;100790.0;;;-19.1;90.7
28456;BME280;15682;56.742;38.866;2023-01-08T04:55:54;100790.0;;;-19.2;90.7
28456;BME280;15682;56.742;38.866;2023-01-08T04:57:53;100790.0;;;-19.2;91.2
28456;BME280;15682;56.742;38.866;2023-01-08T04:59:53;100790.0;;;-19.1;91.2
28456;BME280;15682;56.742;38.866;2023-01-08T05:01:52;100790.0;;;-19.1;90.8
28456;BME280;15682;56.742;38.866;2023-01-08T05:03:53;100790.0;;;-19.1;90.8
28456;BME280;15682;56.742;38.866;2023-01-08T05:05:51;100790.0;;;-19.1;90.8
28456;BME280;15682;56.742;38.866;2023-01-08T05:07:51;100790.0;;;-18.9;90.8
28456;BME280;15682;56.742;38.866;2023-01-08T05:09:50;100790.0;;;-18.9;90.8
28456;BME280;15682;56.742;38.866;2023-01-08T05:11:50;100790.0;;;-18.8;91.2
28456;BME280;15682;56.742;38.866;2023-01-08T05:13:51;100790.0;;;-18.8;91.2
28456;BME280;15682;56.742;38.866;2023-01-08T05:15:49;100790.0;;;-18.8;91.2
28456;BME280;15682;56.742;38.866;2023-01-08T05:17:48;100800.0;;;-18.8;91.2
28456;BME280;15682;56.742;38.866;2023-01-08T05:19:48;100800.0;;;-18.8;91.2
28456;BME280;15682;56.742;38.866;2023-01-08T05:21:47;100800.0;;;-18.8;91.8
28456;BME280;15682;56.742;38.866;2023-01-08T05:23:47;100800.0;;;-18.7;91.8
28456;BME280;15682;56.742;38.866;2023-01-08T05:25:46;100800.0;;;-18.7;91.8
28456;BME280;15682;56.742;38.866;2023-01-08T05:27:46;100800.0;;;-18.7;91.8
28456;BME280;15682;56.742;38.866;2023-01-08T05:29:45;100800.0;;;-18.7;91.8
28456;BME280;15682;56.742;38.866;2023-01-08T05:31:45;100800.0;;;-18.6;91.4
28456;BME280;15682;56.742;38.866;2023-01-08T05:33:44;100800.0;;;-18.6;91.2
28456;BME280;15682;56.742;38.866;2023-01-08T05:35:44;100800.0;;;-18.6;91.8
28456;BME280;15682;56.742;38.866;2023-01-08T05:37:43;100800.0;;;-18.6;91.3
28456;BME280;15682;56.742;38.866;2023-01-08T05:39:43;100800.0;;;-18.8;91.3
28456;BME280;15682;56.742;38.866;2023-01-08T05:41:42;100800.0;;;-18.8;91.4
28456;BME280;15682;56.742;38.866;2023-01-08T05:43:42;100800.0;;;-18.8;91.4
28456;BME280;15682;56.742;38.866;2023-01-08T05:45:41;100800.0;;;-18.8;91.8
28456;BME280;15682;56.742;38.866;2023-01-08T05:47:41;100800.0;;;-18.8;91.8
28456;BME280;15682;56.742;38.866;2023-01-08T05:49:40;100800.0;;;-18.8;91.8
28456;BME280;15682;56.742;38.866;2023-01-08T05:51:40;100800.0;;;-18.7;91.8
28456;BME280;15682;56.742;38.866;2023-01-08T05:53:39;100800.0;;;-18.7;91.8
28456;BME280;15682;56.742;38.866;2023-01-08T05:55:39;100800.0;;;-18.5;91.8
28456;BME280;15682;56.742;38.866;2023-01-08T05:57:38;100800.0;;;-18.5;91.8
28456;BME280;15682;56.742;38.866;2023-01-08T05:59:38;100800.0;;;-18.5;91.1
28456;BME280;15682;56.742;38.866;2023-01-08T06:01:38;100800.0;;;-18.6;91.1
28456;BME280;15682;56.742;38.866;2023-01-08T06:03:38;100800.0;;;-18.7;91.1
28456;BME280;15682;56.742;38.866;2023-01-08T06:05:36;100800.0;;;-18.7;91.1
28456;BME280;15682;56.742;38.866;2023-01-08T06:07:36;100810.0;;;-18.7;91.1
28456;BME280;15682;56.742;38.866;2023-01-08T06:09:35;100810.0;;;-18.3;91.1
28456;BME280;15682;56.742;38.866;2023-01-08T06:11:35;100810.0;;;-18.3;91.1
28456;BME280;15682;56.742;38.866;2023-01-08T06:13:35;100810.0;;;-18.3;91.1
28456;BME280;15682;56.742;38.866;2023-01-08T06:15:34;100810.0;;;-18.3;90.6
28456;BME280;15682;56.742;38.866;2023-01-08T06:17:34;100810.0;;;-18.3;90.6
28456;BME280;15682;56.742;38.866;2023-01-08T06:19:33;100810.0;;;-18.3;90.6
28456;BME280;15682;56.742;38.866;2023-01-08T06:21:33;100800.0;;;-18.3;90.7
28456;BME280;15682;56.742;38.866;2023-01-08T06:23:32;100800.0;;;-18.2;90.7
28456;BME280;15682;56.742;38.866;2023-01-08T06:25:32;100800.0;;;-18.0;91.8
28456;BME280;15682;56.742;38.866;2023-01-08T06:27:31;100800.0;;;-18.0;90.4
28456;BME280;15682;56.742;38.866;2023-01-08T06:29:31;100800.0;;;-18.0;90.4
28456;BME280;15682;56.742;38.866;2023-01-08T06:31:30;100800.0;;;-17.9;89.9
28456;BME280;15682;56.742;38.866;2023-01-08T06:33:30;100800.0;;;-17.9;89.9
28456;BME280;15682;56.742;38.866;2023-01-08T06:35:29;100810.0;;;-17.9;89.9
28456;BME280;15682;56.742;38.866;2023-01-08T06:37:29;100810.0;;;-17.9;89.9
28456;BME280;15682;56.742;38.866;2023-01-08T06:39:28;100810.0;;;-17.9;89.9
28456;BME280;15682;56.742;38.866;2023-01-08T06:41:28;100810.0;;;-18.1;90.6
28456;BME280;15682;56.742;38.866;2023-01-08T06:43:27;100820.0;;;-18.1;90.6
28456;BME280;15682;56.742;38.866;2023-01-08T06:45:27;100820.0;;;-18.1;90.6
28456;BME280;15682;56.742;38.866;2023-01-08T06:47:26;100820.0;;;-18.1;90.0
28456;BME280;15682;56.742;38.866;2023-01-08T06:49:26;100820.0;;;-18.1;90.0
28456;BME280;15682;56.742;38.866;2023-01-08T06:51:26;100820.0;;;-18.0;90.2
28456;BME280;15682;56.742;38.866;2023-01-08T06:53:25;100820.0;;;-18.1;90.2
28456;BME280;15682;56.742;38.866;2023-01-08T06:55:25;100820.0;;;-18.1;90.2
28456;BME280;15682;56.742;38.866;2023-01-08T06:57:24;100820.0;;;-18.1;90.2
28456;BME280;15682;56.742;38.866;2023-01-08T06:59:24;100820.0;;;-18.1;90.2
28456;BME280;15682;56.742;38.866;2023-01-08T07:01:23;100820.0;;;-18.0;89.9
28456;BME280;15682;56.742;38.866;2023-01-08T07:03:23;100820.0;;;-18.0;89.9
28456;BME280;15682;56.742;38.866;2023-01-08T07:05:22;100820.0;;;-17.9;89.9
28456;BME280;15682;56.742;38.866;2023-01-08T07:07:22;100820.0;;;-17.9;89.9
28456;BME280;15682;56.742;38.866;2023-01-08T07:09:21;100830.0;;;-17.7;89.9
28456;BME280;15682;56.742;38.866;2023-01-08T07:11:21;100830.0;;;-17.8;89.8
28456;BME280;15682;56.742;38.866;2023-01-08T07:13:20;100830.0;;;-17.8;89.8
28456;BME280;15682;56.742;38.866;2023-01-08T07:15:20;100840.0;;;-17.7;89.8
28456;BME280;15682;56.742;38.866;2023-01-08T07:17:19;100840.0;;;-17.7;89.8
28456;BME280;15682;56.742;38.866;2023-01-08T07:19:19;100840.0;;;-17.5;89.4
28456;BME280;15682;56.742;38.866;2023-01-08T07:21:19;100840.0;;;-17.5;89.3
28456;BME280;15682;56.742;38.866;2023-01-08T07:23:18;100840.0;;;-17.3;89.3
28456;BME280;15682;56.742;38.866;2023-01-08T07:25:18;100850.0;;;-17.3;88.6
28456;BME280;15682;56.742;38.866;2023-01-08T07:27:17;100860.0;;;-17.3;88.6
28456;BME280;15682;56.742;38.866;2023-01-08T07:29:17;100860.0;;;-17.3;88.6
28456;BME280;15682;56.742;38.866;2023-01-08T07:31:16;100860.0;;;-17.3;88.9
28456;BME280;15682;56.742;38.866;2023-01-08T07:33:16;100860.0;;;-17.3;89.2
28456;BME280;15682;56.742;38.866;2023-01-08T07:35:15;100860.0;;;-17.2;89.2
28456;BME280;15682;56.742;38.866;2023-01-08T07:37:15;100860.0;;;-17.2;89.7
28456;BME280;15682;56.742;38.866;2023-01-08T07:39:14;100860.0;;;-17.2;89.7
28456;BME280;15682;56.742;38.866;2023-01-08T07:41:14;100860.0;;;-17.1;89.3
28456;BME280;15682;56.742;38.866;2023-01-08T07:43:14;100860.0;;;-17.1;89.3
28456;BME280;15682;56.742;38.866;2023-01-08T07:45:13;100860.0;;;-17.0;89.3
28456;BME280;15682;56.742;38.866;2023-01-08T07:47:12;100870.0;;;-17.0;89.3
28456;BME280;15682;56.742;38.866;2023-01-08T07:49:12;100870.0;;;-17.0;89.2
28456;BME280;15682;56.742;38.866;2023-01-08T07:51:12;100870.0;;;-17.1;89.3
28456;BME280;15682;56.742;38.866;2023-01-08T07:53:12;100870.0;;;-17.1;89.3
28456;BME280;15682;56.742;38.866;2023-01-08T07:55:11;100870.0;;;-17.2;89.3
28456;BME280;15682;56.742;38.866;2023-01-08T07:57:10;100870.0;;;-17.2;89.3
28456;BME280;15682;56.742;38.866;2023-01-08T07:59:10;100880.0;;;-17.2;89.3
28456;BME280;15682;56.742;38.866;2023-01-08T08:01:10;100880.0;;;-17.1;89.5
28456;BME280;15682;56.742;38.866;2023-01-08T08:03:09;100880.0;;;-17.0;89.5
28456;BME280;15682;56.742;38.866;2023-01-08T08:05:08;100880.0;;;-17.0;89.9
28456;BME280;15682;56.742;38.866;2023-01-08T08:07:08;100880.0;;;-17.0;89.2
28456;BME280;15682;56.742;38.866;2023-01-08T08:09:08;100880.0;;;-17.0;89.2
28456;BME280;15682;56.742;38.866;2023-01-08T08:11:07;100880.0;;;-17.1;89.7
28456;BME280;15682;56.742;38.866;2023-01-08T08:13:07;100880.0;;;-17.1;89.8
28456;BME280;15682;56.742;38.866;2023-01-08T08:15:07;100880.0;;;-17.1;89.8
28456;BME280;15682;56.742;38.866;2023-01-08T08:17:06;100880.0;;;-17.1;89.8
28456;BME280;15682;56.742;38.866;2023-01-08T08:19:05;100880.0;;;-16.9;89.8
28456;BME280;15682;56.742;38.866;2023-01-08T08:21:05;100880.0;;;-17.0;89.2
28456;BME280;15682;56.742;38.866;2023-01-08T08:23:06;100880.0;;;-17.1;89.2
28456;BME280;15682;56.742;38.866;2023-01-08T08:25:04;100880.0;;;-17.1;89.2
28456;BME280;15682;56.742;38.866;2023-01-08T08:27:03;100880.0;;;-17.1;89.2
28456;BME280;15682;56.742;38.866;2023-01-08T08:29:03;100880.0;;;-17.1;89.2
28456;BME280;15682;56.742;38.866;2023-01-08T08:31:03;100880.0;;;-17.1;89.7
28456;BME280;15682;56.742;38.866;2023-01-08T08:33:04;100880.0;;;-17.1;89.7
28456;BME280;15682;56.742;38.866;2023-01-08T08:35:03;100880.0;;;-17.1;89.7
28456;BME280;15682;56.742;38.866;2023-01-08T08:37:01;100880.0;;;-17.1;88.8
28456;BME280;15682;56.742;38.866;2023-01-08T08:39:01;100880.0;;;-17.0;88.8
28456;BME280;15682;56.742;38.866;2023-01-08T08:41:00;100880.0;;;-17.0;88.8
28456;BME280;15682;56.742;38.866;2023-01-08T08:43:02;100880.0;;;-16.8;88.8
28456;BME280;15682;56.742;38.866;2023-01-08T08:44:59;100890.0;;;-16.8;88.8
28456;BME280;15682;56.742;38.866;2023-01-08T08:46:59;100890.0;;;-16.7;88.8
28456;BME280;15682;56.742;38.866;2023-01-08T08:48:58;100890.0;;;-16.6;88.8
28456;BME280;15682;56.742;38.866;2023-01-08T08:50:58;100890.0;;;-16.6;88.4
28456;BME280;15682;56.742;38.866;2023-01-08T08:52:58;100890.0;;;-16.5;88.4
28456;BME280;15682;56.742;38.866;2023-01-08T08:54:58;100900.0;;;-16.3;88.4
28456;BME280;15682;56.742;38.866;2023-01-08T08:56:57;100900.0;;;-16.3;88.3
28456;BME280;15682;56.742;38.866;2023-01-08T08:58:56;100900.0;;;-16.3;88.3
28456;BME280;15682;56.742;38.866;2023-01-08T09:01:00;100900.0;;;-16.3;88.8
28456;BME280;15682;56.742;38.866;2023-01-08T09:02:56;100900.0;;;-16.3;88.8
28456;BME280;15682;56.742;38.866;2023-01-08T09:04:55;100900.0;;;-16.3;88.8
28456;BME280;15682;56.742;38.866;2023-01-08T09:06:55;100900.0;;;-16.2;88.8
28456;BME280;15682;56.742;38.866;2023-01-08T09:08:54;100900.0;;;-16.2;88.8
28456;BME280;15682;56.742;38.866;2023-01-08T09:10:54;100900.0;;;-16.2;88.5
28456;BME280;15682;56.742;38.866;2023-01-08T09:12:54;100900.0;;;-16.2;88.5
28456;BME280;15682;56.742;38.866;2023-01-08T09:14:53;100900.0;;;-16.2;88.5
28456;BME280;15682;56.742;38.866;2023-01-08T09:16:53;100900.0;;;-16.0;88.5
28456;BME280;15682;56.742;38.866;2023-01-08T09:18:52;100900.0;;;-16.0;88.5
28456;BME280;15682;56.742;38.866;2023-01-08T09:20:52;100900.0;;;-16.0;88.1
28456;BME280;15682;56.742;38.866;2023-01-08T09:22:51;100900.0;;;-16.0;88.1
28456;BME280;15682;56.742;38.866;2023-01-08T09:24:51;100900.0;;;-15.9;88.1
28456;BME280;15682;56.742;38.866;2023-01-08T09:26:52;100900.0;;;-15.9;88.1
28456;BME280;15682;56.742;38.866;2023-01-08T09:28:50;100900.0;;;-15.9;88.2
28456;BME280;15682;56.742;38.866;2023-01-08T09:30:51;100900.0;;;-15.9;88.6
28456;BME280;15682;56.742;38.866;2023-01-08T09:32:49;100900.0;;;-15.8;88.6
28456;BME280;15682;56.742;38.866;2023-01-08T09:34:49;100890.0;;;-15.8;88.6
28456;BME280;15682;56.742;38.866;2023-01-08T09:36:48;100890.0;;;-15.6;88.9
28456;BME280;15682;56.742;38.866;2023-01-08T09:38:48;100890.0;;;-15.4;88.9
28456;BME280;15682;56.742;38.866;2023-01-08T09:40:53;100890.0;;;-15.5;88.4
28456;BME280;15682;56.742;38.866;2023-01-08T09:42:52;100890.0;;;-15.5;88.4
28456;BME280;15682;56.742;38.866;2023-01-08T09:44:47;100890.0;;;-15.5;88.4
28456;BME280;15682;56.742;38.866;2023-01-08T09:46:47;100890.0;;;-15.5;88.4
28456;BME280;15682;56.742;38.866;2023-01-08T09:48:46;100890.0;;;-15.5;88.4
28456;BME280;15682;56.742;38.866;2023-01-08T09:50:46;100890.0;;;-15.5;89.0
28456;BME280;15682;56.742;38.866;2023-01-08T09:52:45;100890.0;;;-15.5;89.0
28456;BME280;15682;56.742;38.866;2023-01-08T09:54:44;100890.0;;;-15.5;89.0
28456;BME280;15682;56.742;38.866;2023-01-08T09:56:44;100890.0;;;-15.5;89.0
28456;BME280;15682;56.742;38.866;2023-01-08T09:58:45;100890.0;;;-15.5;89.7
28456;BME280;15682;56.742;38.866;2023-01-08T10:00:43;100890.0;;;-15.4;89.7
28456;BME280;15682;56.742;38.866;2023-01-08T10:02:43;100890.0;;;-15.4;89.3
28456;BME280;15682;56.742;38.866;2023-01-08T10:04:43;100890.0;;;-15.4;89.3
28456;BME280;15682;56.742;38.866;2023-01-08T10:06:48;100890.0;;;-15.4;89.3
28456;BME280;15682;56.742;38.866;2023-01-08T10:08:42;100890.0;;;-15.4;89.3
28456;BME280;15682;56.742;38.866;2023-01-08T10:10:42;100890.0;;;-15.5;89.3
28456;BME280;15682;56.742;38.866;2023-01-08T10:12:41;100890.0;;;-15.3;89.0
28456;BME280;15682;56.742;38.866;2023-01-08T10:14:40;100890.0;;;-15.3;89.0
28456;BME280;15682;56.742;38.866;2023-01-08T10:16:40;100890.0;;;-15.3;89.0
28456;BME280;15682;56.742;38.866;2023-01-08T10:18:39;100890.0;;;-15.3;89.0
28456;BME280;15682;56.742;38.866;2023-01-08T10:20:39;100890.0;;;-15.3;89.0
28456;BME280;15682;56.742;38.866;2023-01-08T10:22:39;100890.0;;;-15.2;89.4
28456;BME280;15682;56.742;38.866;2023-01-08T10:24:38;100890.0;;;-15.2;89.8
28456;BME280;15682;56.742;38.866;2023-01-08T10:26:38;100890.0;;;-15.2;89.8
28456;BME280;15682;56.742;38.866;2023-01-08T10:28:37;100890.0;;;-15.2;89.8
28456;BME280;15682;56.742;38.866;2023-01-08T10:30:38;100890.0;;;-15.1;89.2
28456;BME280;15682;56.742;38.866;2023-01-08T10:32:36;100890.0;;;-15.2;89.3